Time;durP1;ratioP1;P1;durP2;ratioP2;P2;SDS_P1;SDS_P2;PMS_P1;PMS_P2;Temp;Humidity;BMP_temperature;BMP_pressure;BME280_temperature;BME280_humidity;BME280_pressure;Samples;Min_cycle;Max_cycle;Signal;HPM_P1;HPM_P2
2021/12/29 00:00:15;;;;;;;;;6.33;4.00;;;;;13.66;60.41;100496.66;4994455;28;45312;-86
2021/12/29 00:02:40;;;;;;;;;3.33;3.33;;;;;13.67;60.65;100485.00;4993020;28;45487;-84
2021/12/29 00:05:07;;;;;;;;;4.67;2.33;;;;;13.68;60.45;100494.75;4994631;28;45467;-85
2021/12/29 00:07:33;;;;;;;;;7.33;5.00;;;;;12.94;60.30;100380.50;5009040;28;47146;-84
2021/12/29 00:10:00;;;;;;;;;6.00;3.33;;;;;13.43;60.61;100462.38;4992806;28;45476;-85
2021/12/29 00:12:26;;;;;;;;;4.00;2.33;;;;;13.68;60.64;100505.47;4994408;28;45438;-85
2021/12/29 00:14:53;;;;;;;;;4.00;2.00;;;;;12.89;60.61;100386.13;4993225;28;45365;-85
2021/12/29 00:17:20;;;;;;;;;2.00;2.00;;;;;13.01;60.76;100397.91;4994003;28;46068;-85
2021/12/29 00:19:45;;;;;;;;;3.00;3.00;;;;;12.95;60.72;100398.28;4993941;28;45476;-85
2021/12/29 00:22:10;;;;;;;;;5.33;3.00;;;;;13.25;60.05;100470.53;4992457;28;45459;-85
2021/12/29 00:24:36;;;;;;;;;2.33;1.33;;;;;13.67;60.68;100546.59;4994627;28;45235;-85
2021/12/29 00:27:04;;;;;;;;;6.00;2.33;;;;;13.06;60.39;100445.78;4992674;28;48342;-85
2021/12/29 00:29:29;;;;;;;;;3.67;2.67;;;;;12.98;60.27;100440.03;4994148;28;45396;-86
2021/12/29 00:31:55;;;;;;;;;6.33;3.00;;;;;13.33;60.33;100485.31;4994109;28;45306;-85
2021/12/29 00:34:20;;;;;;;;;6.00;3.00;;;;;13.26;60.61;100490.13;4994330;28;45377;-85
2021/12/29 00:36:45;;;;;;;;;7.00;4.67;;;;;13.46;60.22;100518.41;4993212;28;46178;-85
2021/12/29 00:39:11;;;;;;;;;7.67;3.67;;;;;13.69;60.50;100557.22;4993959;28;45283;-85
2021/12/29 00:41:36;;;;;;;;;3.67;3.00;;;;;12.89;60.55;100428.91;4994001;28;45844;-84
2021/12/29 00:44:02;;;;;;;;;6.33;2.33;;;;;13.43;60.69;100526.63;4993976;28;45547;-85
2021/12/29 00:46:27;;;;;;;;;6.00;4.00;;;;;13.09;60.68;100475.91;4993771;28;46225;-85
2021/12/29 00:48:53;;;;;;;;;3.00;2.67;;;;;12.89;61.12;100442.28;4993741;28;45425;-85
2021/12/29 00:51:18;;;;;;;;;6.67;3.67;;;;;13.19;60.94;100488.75;4993730;28;45482;-85
2021/12/29 00:53:44;;;;;;;;;4.33;3.33;;;;;13.13;60.93;100487.28;4993990;28;45437;-85
2021/12/29 00:56:09;;;;;;;;;6.67;5.00;;;;;13.46;61.21;100547.84;4993458;28;45459;-85
2021/12/29 00:58:35;;;;;;;;;5.33;3.67;;;;;13.00;61.23;100478.28;4993667;28;45368;-85
2021/12/29 01:01:03;;;;;;;;;9.33;4.33;;;;;13.64;61.39;100576.22;5009256;28;45385;-84
2021/12/29 01:03:29;;;;;;;;;7.67;5.67;;;;;12.99;61.71;100463.16;4996985;28;45265;-85
2021/12/29 01:05:55;;;;;;;;;5.00;3.33;;;;;13.05;61.62;100477.03;4996110;28;45372;-85
2021/12/29 01:08:21;;;;;;;;;7.33;4.67;;;;;12.83;61.66;100434.63;4996719;28;45357;-85
2021/12/29 01:10:47;;;;;;;;;4.33;3.33;;;;;12.51;61.92;100376.81;4995228;28;45522;-85
2021/12/29 01:13:19;;;;;;;;;7.00;5.33;;;;;12.81;61.81;100441.88;4996874;28;45516;-85
2021/12/29 01:18:30;;;;;;;;;3.67;2.33;;;;;12.66;62.04;100427.56;4996703;28;45466;-85
2021/12/29 01:20:56;;;;;;;;;7.00;4.00;;;;;12.63;61.98;100425.09;4996083;28;45464;-85
2021/12/29 01:23:23;;;;;;;;;8.00;4.00;;;;;12.84;62.21;100456.91;4997045;28;45513;-84
2021/12/29 01:25:48;;;;;;;;;5.67;3.33;;;;;13.38;62.17;100548.31;4996242;28;45500;-85
2021/12/29 01:28:13;;;;;;;;;4.33;4.00;;;;;12.86;62.00;100463.88;4994857;28;45453;-85
2021/12/29 01:30:39;;;;;;;;;8.33;3.00;;;;;13.00;62.09;100471.09;4996443;28;45449;-85
2021/12/29 01:33:06;;;;;;;;;10.33;8.00;;;;;12.96;62.29;100471.38;4995185;28;45660;-85
2021/12/29 01:35:35;;;;;;;;;4.33;4.00;;;;;13.67;62.46;100581.44;4995629;28;45400;-85
2021/12/29 01:38:02;;;;;;;;;3.67;3.67;;;;;13.67;62.46;100578.75;4996016;28;45326;-85
2021/12/29 01:40:27;;;;;;;;;6.33;4.67;;;;;13.20;62.62;100501.19;4996340;28;45427;-84
2021/12/29 01:42:53;;;;;;;;;7.00;4.67;;;;;13.31;62.52;100512.16;4996351;28;45330;-84
2021/12/29 01:45:20;;;;;;;;;7.33;4.67;;;;;13.19;62.67;100507.50;4995886;28;46079;-85
2021/12/29 01:47:45;;;;;;;;;9.00;5.67;;;;;13.38;62.26;100528.72;4996113;28;45593;-85
2021/12/29 01:50:12;;;;;;;;;11.33;4.33;;;;;12.76;62.72;100422.56;5010935;28;45695;-85
2021/12/29 01:52:40;;;;;;;;;7.00;5.67;;;;;13.19;62.92;100500.31;4995269;28;45406;-85
2021/12/29 01:55:16;;;;;;;;;7.00;5.00;;;;;13.69;62.76;100584.84;4995685;28;45484;-85
2021/12/29 01:57:43;;;;;;;;;7.67;4.00;;;;;13.08;63.12;100489.38;4995940;28;45328;-85
2021/12/29 02:00:15;;;;;;;;;7.67;3.00;;;;;13.20;63.25;100512.72;4996006;28;45301;-85
2021/12/29 02:02:41;;;;;;;;;5.67;4.00;;;;;13.62;63.10;100593.34;4995852;28;45338;-85
2021/12/29 02:05:08;;;;;;;;;3.00;3.00;;;;;12.81;63.02;100463.28;4995673;28;45511;-85
2021/12/29 02:07:33;;;;;;;;;6.33;5.00;;;;;13.33;63.07;100552.22;4995578;28;45546;-85
2021/12/29 02:09:59;;;;;;;;;6.67;6.67;;;;;13.67;63.15;100601.97;4996015;28;45445;-85
2021/12/29 02:12:25;;;;;;;;;7.00;5.33;;;;;12.99;63.79;100493.44;4995762;28;45641;-85
2021/12/29 02:14:51;;;;;;;;;3.00;2.00;;;;;13.64;63.30;100597.66;4995711;28;46275;-85
2021/12/29 02:17:16;;;;;;;;;5.00;3.00;;;;;13.44;63.21;100561.34;4995311;28;45439;-85
2021/12/29 02:19:46;;;;;;;;;4.67;4.67;;;;;13.01;62.85;100486.19;4995802;28;45371;-85
2021/12/29 02:22:26;;;;;;;;;12.67;7.00;;;;;13.48;63.28;100562.88;4994645;28;45531;-85
2021/12/29 02:25:05;;;;;;;;;7.33;5.33;;;;;13.05;63.26;100495.78;4993987;28;46995;-85
2021/12/29 02:27:32;;;;;;;;;6.00;6.00;;;;;12.99;63.30;100482.75;4994266;28;45319;-85
2021/12/29 02:29:58;;;;;;;;;3.00;3.00;;;;;13.01;63.38;100494.22;4995709;28;45467;-85
2021/12/29 02:32:23;;;;;;;;;5.00;4.67;;;;;13.47;63.83;100577.22;4995380;28;45538;-84
2021/12/29 02:34:48;;;;;;;;;10.00;4.33;;;;;13.70;63.77;100613.38;4994128;28;47028;-85
2021/12/29 02:37:19;;;;;;;;;8.00;5.67;;;;;13.73;63.82;100605.16;4993641;28;45456;-85
2021/12/29 02:39:45;;;;;;;;;8.33;3.00;;;;;13.75;63.54;100604.22;4995598;28;45371;-85
2021/12/29 02:42:10;;;;;;;;;3.33;3.33;;;;;13.76;63.63;100604.09;4995698;28;45387;-85
2021/12/29 02:44:40;;;;;;;;;6.33;3.67;;;;;12.79;63.58;100445.59;4995633;28;45467;-85
2021/12/29 02:47:06;;;;;;;;;7.00;3.00;;;;;13.14;63.61;100497.06;4995071;28;45545;-85
2021/12/29 02:49:32;;;;;;;;;9.00;4.00;;;;;13.76;63.66;100592.53;4995443;28;45502;-85
2021/12/29 02:51:57;;;;;;;;;6.33;3.67;;;;;12.67;63.74;100402.56;4995626;28;45474;-85
2021/12/29 02:54:24;;;;;;;;;6.33;3.33;;;;;13.55;63.51;100550.00;4995012;28;45590;-84
2021/12/29 02:56:54;;;;;;;;;4.00;3.33;;;;;13.78;63.41;100593.31;5010243;28;45616;-85
2021/12/29 02:59:20;;;;;;;;;4.67;4.00;;;;;13.13;63.35;100491.78;5010408;28;45538;-85
2021/12/29 03:01:46;;;;;;;;;4.33;4.33;;;;;13.64;63.66;100573.56;4994999;28;45546;-85
2021/12/29 03:04:12;;;;;;;;;4.00;2.33;;;;;13.16;63.65;100488.91;4994987;28;46120;-85
2021/12/29 03:06:38;;;;;;;;;2.00;2.00;;;;;13.15;63.50;100482.72;4995307;28;45417;-85
2021/12/29 03:09:05;;;;;;;;;7.33;3.67;;;;;13.37;63.59;100526.97;4995108;28;45321;-85
2021/12/29 03:11:31;;;;;;;;;5.33;3.00;;;;;13.83;63.96;100593.88;4995207;28;45630;-85
2021/12/29 03:13:56;;;;;;;;;7.33;3.00;;;;;13.50;63.90;100536.00;4994953;28;45805;-85
2021/12/29 03:16:22;;;;;;;;;7.00;3.00;;;;;12.88;63.63;100432.56;5009955;28;45845;-85
2021/12/29 03:18:47;;;;;;;;;8.67;3.00;;;;;13.07;64.44;100464.44;4995201;28;45457;-85
2021/12/29 03:21:14;;;;;;;;;2.00;2.00;;;;;13.17;64.27;100482.63;5010437;28;45519;-85
2021/12/29 03:23:40;;;;;;;;;3.67;3.00;;;;;12.94;63.87;100428.66;4993814;28;46516;-85
2021/12/29 03:26:08;;;;;;;;;4.00;1.67;;;;;13.28;64.86;100480.22;5010028;28;45584;-85
2021/12/29 03:28:35;;;;;;;;;2.67;2.00;;;;;13.61;64.35;100541.59;4994975;28;45348;-85
2021/12/29 03:31:01;;;;;;;;;5.33;2.67;;;;;13.37;64.70;100518.94;4994724;28;45293;-85
2021/12/29 03:33:30;;;;;;;;;4.67;4.00;;;;;13.60;64.58;100558.63;4994616;28;46551;-85
2021/12/29 03:36:02;;;;;;;;;5.33;2.67;;;;;13.81;65.01;100595.78;4992822;28;45527;-85
2021/12/29 03:38:30;;;;;;;;;5.00;2.67;;;;;12.82;64.90;100434.72;4994874;28;45450;-85
2021/12/29 03:40:57;;;;;;;;;4.67;3.00;;;;;13.77;64.89;100595.13;4994944;28;45431;-85
2021/12/29 03:43:24;;;;;;;;;4.33;1.67;;;;;13.26;65.12;100520.41;4994665;28;45394;-85
2021/12/29 03:45:51;;;;;;;;;3.67;3.33;;;;;13.49;65.16;100561.09;4994253;28;45386;-85
2021/12/29 03:48:19;;;;;;;;;4.33;2.00;;;;;12.93;65.19;100460.84;4994702;28;45522;-85
2021/12/29 03:50:46;;;;;;;;;4.33;3.67;;;;;13.22;65.65;100497.47;4994763;28;45530;-84
2021/12/29 03:53:14;;;;;;;;;2.33;1.67;;;;;12.66;64.95;100422.22;4993252;28;48029;-84
2021/12/29 03:55:46;;;;;;;;;8.00;5.33;;;;;13.76;65.09;100585.34;4994094;28;45527;-85
2021/12/29 03:58:12;;;;;;;;;2.67;2.67;;;;;13.77;65.19;100580.88;4994525;28;45479;-85
2021/12/29 04:00:37;;;;;;;;;1.67;1.33;;;;;13.55;65.14;100539.28;4994352;28;45353;-84
2021/12/29 04:03:05;;;;;;;;;2.67;2.00;;;;;13.27;65.48;100487.41;4994331;28;46289;-84
2021/12/29 04:05:31;;;;;;;;;4.33;2.33;;;;;13.39;65.07;100517.03;4992928;28;45495;-85
2021/12/29 04:07:57;;;;;;;;;3.67;2.00;;;;;13.57;65.21;100553.44;4994338;28;45372;-85
2021/12/29 04:10:23;;;;;;;;;3.33;1.33;;;;;13.17;64.96;100486.16;4994708;28;45613;-84
2021/12/29 04:12:49;;;;;;;;;1.67;1.67;;;;;13.17;65.00;100483.50;4993937;28;45490;-84
2021/12/29 04:15:15;;;;;;;;;6.00;3.67;;;;;13.78;65.15;100582.59;4994017;28;45468;-84
2021/12/29 04:17:41;;;;;;;;;6.33;3.00;;;;;13.42;64.77;100543.66;5009290;28;45396;-85
2021/12/29 04:22:51;;;;;;;;;3.00;3.00;;;;;13.71;65.60;100572.22;4994088;28;45502;-85
2021/12/29 04:25:20;;;;;;;;;3.67;2.00;;;;;13.36;66.04;100531.47;4994233;28;45511;-85
2021/12/29 04:27:47;;;;;;;;;7.00;3.33;;;;;12.90;65.76;100453.88;4993661;28;45378;-84
2021/12/29 04:30:13;;;;;;;;;1.67;1.67;;;;;12.91;65.66;100458.25;4994331;28;45500;-85
2021/12/29 04:32:38;;;;;;;;;3.33;2.00;;;;;12.87;66.22;100438.84;4993654;28;45975;-85
2021/12/29 04:35:04;;;;;;;;;4.00;3.00;;;;;13.38;66.66;100542.09;4994206;28;45539;-84
2021/12/29 04:37:29;;;;;;;;;3.33;3.00;;;;;12.81;67.10;100462.44;4996398;28;45555;-84
2021/12/29 04:39:55;;;;;;;;;1.00;1.00;;;;;13.42;67.26;100559.72;4997117;28;45510;-84
2021/12/29 04:42:20;;;;;;;;;1.00;1.00;;;;;12.59;67.17;100418.19;4996343;28;45455;-85
2021/12/29 04:44:45;;;;;;;;;2.33;2.33;;;;;12.66;68.20;100437.41;4996609;28;45504;-84
2021/12/29 04:47:12;;;;;;;;;3.67;3.33;;;;;12.45;67.95;100405.63;4996683;28;45505;-85
2021/12/29 04:49:42;;;;;;;;;2.00;2.00;;;;;13.51;68.66;100580.59;4996821;28;45423;-85
2021/12/29 04:52:11;;;;;;;;;1.00;1.00;;;;;12.68;68.47;100432.84;4996478;28;46229;-84
2021/12/29 04:54:37;;;;;;;;;0.33;0.33;;;;;13.50;68.67;100570.81;4996655;28;45425;-84
2021/12/29 04:57:04;;;;;;;;;2.67;1.00;;;;;12.53;69.03;100402.50;4995958;28;45282;-84
2021/12/29 04:59:30;;;;;;;;;1.00;0.00;;;;;12.27;68.84;100377.28;4996680;28;45362;-84
2021/12/29 05:01:56;;;;;;;;;7.00;2.67;;;;;12.71;68.64;100447.84;4996020;28;45372;-84
2021/12/29 05:04:29;;;;;;;;;2.00;0.67;;;;;13.41;69.22;100550.81;4994903;28;45857;-85
2021/12/29 05:09:38;;;;;;;;;1.33;0.67;;;;;13.30;69.35;100534.53;4996676;28;45391;-84
2021/12/29 05:12:05;;;;;;;;;2.33;0.67;;;;;12.87;69.56;100462.06;4994339;27;47384;-84
2021/12/29 05:14:30;;;;;;;;;0.33;0.33;;;;;13.26;69.99;100539.16;4996239;28;45260;-84
2021/12/29 05:16:56;;;;;;;;;1.00;0.00;;;;;12.44;69.75;100379.84;4994623;28;45371;-84
2021/12/29 05:19:21;;;;;;;;;1.00;0.00;;;;;12.58;69.91;100388.88;4996687;28;45433;-84
2021/12/29 05:21:47;;;;;;;;;1.00;1.00;;;;;13.45;70.02;100532.75;4995878;28;46226;-84
2021/12/29 05:24:12;;;;;;;;;0.67;0.67;;;;;12.81;69.95;100439.22;4996219;28;45820;-84
2021/12/29 05:26:38;;;;;;;;;0.67;0.00;;;;;12.43;70.80;100385.25;4995816;28;45624;-84
2021/12/29 05:29:04;;;;;;;;;0.67;0.67;;;;;12.45;70.68;100394.94;4996353;28;45713;-85
2021/12/29 05:31:29;;;;;;;;;0.00;0.00;;;;;12.92;70.89;100475.16;4994299;28;48554;-84
2021/12/29 05:33:55;;;;;;;;;0.33;0.33;;;;;12.42;71.62;100388.88;4995840;28;45568;-85
2021/12/29 05:36:21;;;;;;;;;1.00;1.00;;;;;13.16;71.71;100524.59;4994099;28;45502;-85
2021/12/29 05:38:46;;;;;;;;;1.00;1.00;;;;;13.25;71.92;100529.41;4996116;28;45461;-85
2021/12/29 05:41:12;;;;;;;;;2.00;0.00;;;;;12.25;72.41;100361.31;4993975;28;48529;-85
2021/12/29 05:43:37;;;;;;;;;0.67;0.67;;;;;12.76;72.79;100440.41;4995717;28;45515;-85
2021/12/29 05:46:03;;;;;;;;;2.33;0.33;;;;;12.63;72.75;100417.06;4995707;28;45455;-85
2021/12/29 05:48:28;;;;;;;;;2.00;0.67;;;;;13.04;72.94;100479.78;4995441;28;45354;-86
2021/12/29 05:50:54;;;;;;;;;0.67;0.67;;;;;12.62;72.83;100420.69;4995355;28;45558;-85
2021/12/29 05:53:19;;;;;;;;;1.00;1.00;;;;;12.78;73.58;100423.34;4995851;28;45505;-86
2021/12/29 05:55:44;;;;;;;;;1.67;1.67;;;;;12.39;73.19;100359.69;4995169;28;45822;-85
2021/12/29 05:58:10;;;;;;;;;0.67;0.67;;;;;12.63;73.34;100397.50;4994433;28;45447;-85
2021/12/29 06:00:37;;;;;;;;;0.67;0.67;;;;;12.40;73.76;100366.72;4995569;28;45577;-86
2021/12/29 06:03:03;;;;;;;;;0.33;0.33;;;;;13.18;73.63;100497.72;4994119;28;45813;-86
2021/12/29 06:05:28;;;;;;;;;2.67;1.67;;;;;12.40;73.91;100364.06;4995640;28;45537;-86
2021/12/29 06:07:54;;;;;;;;;0.67;0.67;;;;;12.63;74.12;100416.19;4994353;28;45624;-86
2021/12/29 06:10:20;;;;;;;;;4.00;1.00;;;;;13.25;74.16;100508.00;4993724;28;48015;-85
2021/12/29 06:12:46;;;;;;;;;1.00;1.00;;;;;12.70;74.08;100414.91;4995280;28;45380;-86
2021/12/29 06:15:12;;;;;;;;;3.00;2.67;;;;;12.55;74.07;100389.03;4995463;28;45302;-86
2021/12/29 06:17:38;;;;;;;;;2.67;1.33;;;;;12.74;74.62;100415.59;4995707;28;45349;-86
2021/12/29 06:20:07;;;;;;;;;1.67;1.67;;;;;12.35;74.57;100352.78;4995095;28;45376;-85
2021/12/29 06:22:32;;;;;;;;;2.67;2.67;;;;;12.24;74.46;100343.56;4995632;28;45638;-85
2021/12/29 06:24:58;;;;;;;;;4.67;4.67;;;;;12.73;74.88;100433.44;4993708;28;45559;-85
2021/12/29 06:27:24;;;;;;;;;2.33;2.33;;;;;12.67;74.61;100407.91;4995747;28;45592;-85
2021/12/29 06:29:50;;;;;;;;;5.33;5.33;;;;;13.26;75.32;100509.72;4994142;28;47055;-85
2021/12/29 06:32:16;;;;;;;;;31.33;27.67;;;;;12.72;75.20;100422.84;4995105;28;45408;-84
2021/12/29 06:34:42;;;;;;;;;9.00;9.00;;;;;12.31;75.69;100359.25;4995186;28;45495;-85
2021/12/29 06:37:12;;;;;;;;;7.67;7.67;;;;;13.27;75.98;100508.81;4995121;28;45592;-85
2021/12/29 06:39:42;;;;;;;;;7.67;5.33;;;;;13.14;75.75;100509.59;4993156;28;47567;-85
2021/12/29 06:42:08;;;;;;;;;9.00;8.33;;;;;12.39;75.31;100349.84;4994907;28;45437;-85
2021/12/29 06:44:35;;;;;;;;;7.00;6.33;;;;;12.64;76.27;100396.53;4995157;28;45421;-85
2021/12/29 06:47:00;;;;;;;;;3.00;3.00;;;;;13.03;76.03;100468.25;4995159;28;45333;-85
2021/12/29 06:49:25;;;;;;;;;3.00;3.00;;;;;12.78;76.10;100433.16;4994805;28;45518;-85
2021/12/29 06:51:51;;;;;;;;;9.00;9.00;;;;;12.96;76.25;100447.28;4993425;28;45965;-85
2021/12/29 06:54:17;;;;;;;;;15.67;13.33;;;;;12.88;75.98;100445.06;4994537;28;45492;-85
2021/12/29 06:56:42;;;;;;;;;4.00;4.00;;;;;12.52;76.95;100371.38;4995121;28;45431;-86
2021/12/29 06:59:08;;;;;;;;;10.33;10.33;;;;;12.64;75.94;100396.53;4993370;28;46296;-85
2021/12/29 07:01:33;;;;;;;;;4.00;4.00;;;;;12.57;76.27;100385.34;4994874;28;45452;-86
2021/12/29 07:03:58;;;;;;;;;4.00;4.00;;;;;12.89;77.13;100438.75;4994889;28;45529;-87
2021/12/29 07:06:24;;;;;;;;;3.67;3.00;;;;;13.31;76.39;100512.16;4995074;28;45511;-86
2021/12/29 07:08:49;;;;;;;;;8.33;5.33;;;;;12.57;77.60;100398.72;4993165;28;47281;-87
2021/12/29 07:11:15;;;;;;;;;2.33;2.33;;;;;13.06;77.06;100453.81;4994562;28;45466;-87
2021/12/29 07:13:42;;;;;;;;;3.00;3.00;;;;;12.81;77.67;100412.47;4994781;28;45694;-87
2021/12/29 07:16:07;;;;;;;;;3.67;3.67;;;;;12.75;76.83;100402.13;4995010;28;45380;-87
2021/12/29 07:18:33;;;;;;;;;7.00;3.00;;;;;12.08;76.61;100281.28;4993038;28;47556;-88
2021/12/29 07:20:58;;;;;;;;;3.00;3.00;;;;;12.56;76.46;100354.19;4993195;28;45362;-87
2021/12/29 07:23:23;;;;;;;;;3.00;3.00;;;;;12.97;76.22;100424.94;4992997;28;45550;-87
2021/12/29 07:25:49;;;;;;;;;4.67;3.33;;;;;12.49;76.25;100357.34;4994942;28;45633;-88
2021/12/29 07:28:14;;;;;;;;;3.50;3.50;;;;;12.50;76.67;100354.53;4994365;28;45596;-88
2021/12/29 07:30:39;;;;;;;;;5.33;4.00;;;;;12.94;76.71;100419.75;4993009;28;46261;-89
2021/12/29 07:33:05;;;;;;;;;2.67;1.00;;;;;12.71;76.37;100365.81;4994377;28;45421;-89
2021/12/29 07:35:30;;;;;;;;;3.67;2.67;;;;;13.00;76.43;100416.75;4994449;28;45411;-88
2021/12/29 07:37:56;;;;;;;;;2.67;2.33;;;;;13.17;76.81;100456.72;4992279;28;48591;-88
2021/12/29 07:40:21;;;;;;;;;5.33;4.00;;;;;12.78;76.50;100396.59;4993977;28;45530;-88
2021/12/29 07:42:47;;;;;;;;;3.00;1.33;;;;;12.64;76.37;100359.09;4994113;28;45718;-88
2021/12/29 07:45:12;;;;;;;;;3.00;3.00;;;;;12.75;76.09;100387.88;4992762;28;45709;-87
2021/12/29 07:47:44;;;;;;;;;2.00;2.00;;;;;13.27;77.08;100486.47;4992591;28;46270;-88
2021/12/29 07:50:10;;;;;;;;;5.33;5.33;;;;;13.58;77.32;100527.53;4994003;28;45347;-88
2021/12/29 07:52:35;;;;;;;;;17.33;16.67;;;;;12.75;77.11;100401.25;4992339;28;45389;-88
2021/12/29 07:55:00;;;;;;;;;6.67;5.33;;;;;13.20;77.20;100447.66;4994296;28;45221;-88
2021/12/29 07:57:26;;;;;;;;;4.00;2.00;;;;;12.94;77.39;100401.03;4992265;28;47882;-88
2021/12/29 07:59:51;;;;;;;;;3.00;3.00;;;;;13.42;77.09;100480.25;4994020;28;45352;-88
2021/12/29 08:02:19;;;;;;;;;2.67;2.67;;;;;13.79;76.62;100531.63;4993888;28;45361;-88
2021/12/29 08:04:47;;;;;;;;;3.00;3.00;;;;;13.70;76.57;100525.00;4992880;28;45425;-88
2021/12/29 08:07:13;;;;;;;;;2.33;2.33;;;;;13.20;76.75;100432.44;4991450;28;47875;-88
2021/12/29 08:09:39;;;;;;;;;6.00;3.67;;;;;13.06;76.79;100411.00;4991654;28;45479;-88
2021/12/29 08:12:04;;;;;;;;;7.00;4.33;;;;;13.13;76.27;100416.88;4993696;28;45725;-88
2021/12/29 08:14:29;;;;;;;;;5.33;3.67;;;;;13.43;76.53;100465.91;4993931;28;45273;-88
2021/12/29 08:16:55;;;;;;;;;0.00;0.00;;;;;13.96;76.35;100540.44;4993638;28;45401;-88
2021/12/29 08:19:20;;;;;;;;;2.67;2.67;;;;;13.46;76.39;100465.75;4992393;28;45455;-88
2021/12/29 08:21:45;;;;;;;;;3.00;3.00;;;;;12.92;76.23;100381.53;4991886;28;45403;-88
2021/12/29 08:24:11;;;;;;;;;3.33;2.33;;;;;13.02;76.54;100404.13;4993970;28;45447;-88
2021/12/29 08:26:36;;;;;;;;;2.00;2.00;;;;;13.03;75.96;100413.88;4993438;28;46247;-88
2021/12/29 08:29:02;;;;;;;;;2.33;2.33;;;;;13.97;76.73;100560.91;4993471;28;45363;-88
2021/12/29 08:31:28;;;;;;;;;4.00;3.00;;;;;13.85;76.22;100544.63;4993581;28;45601;-88
2021/12/29 08:33:54;;;;;;;;;3.00;3.00;;;;;13.00;76.70;100398.00;4993855;28;45379;-88
2021/12/29 08:36:20;;;;;;;;;2.00;2.00;;;;;13.39;76.64;100460.81;4991029;28;48499;-88
2021/12/29 08:38:46;;;;;;;;;3.00;3.00;;;;;13.63;76.15;100486.13;4991613;28;45349;-88
2021/12/29 08:41:12;;;;;;;;;3.67;3.00;;;;;13.58;76.72;100503.41;4993308;28;45413;-88
2021/12/29 08:43:38;;;;;;;;;4.33;4.33;;;;;13.63;76.31;100496.84;4992156;28;45400;-88
2021/12/29 08:46:04;;;;;;;;;1.00;1.00;;;;;14.10;76.53;100556.53;4993185;28;46399;-88
2021/12/29 08:48:30;;;;;;;;;4.00;3.00;;;;;13.37;76.16;100433.28;4991468;28;45986;-88
2021/12/29 08:50:59;;;;;;;;;2.33;2.00;;;;;13.24;76.08;100399.19;4992923;28;45447;-88
2021/12/29 08:53:25;;;;;;;;;3.00;3.00;;;;;14.14;76.67;100553.56;4993182;28;45464;-88
2021/12/29 08:55:51;;;;;;;;;3.00;3.00;;;;;14.17;76.85;100555.19;4991446;28;48612;-89
2021/12/29 08:58:18;;;;;;;;;3.00;3.00;;;;;13.77;76.81;100487.13;4993017;28;45424;-88
2021/12/29 09:00:44;;;;;;;;;3.67;3.67;;;;;13.91;77.07;100511.25;4991503;28;45490;-88
2021/12/29 09:03:09;;;;;;;;;4.00;4.00;;;;;13.84;76.73;100486.66;4993166;28;45603;-88
2021/12/29 09:05:35;;;;;;;;;4.00;4.00;;;;;13.99;76.94;100522.34;4992541;28;46292;-88
2021/12/29 09:08:01;;;;;;;;;5.33;4.33;;;;;14.15;77.27;100535.66;4992897;28;45384;-88
2021/12/29 09:10:26;;;;;;;;;6.00;4.67;;;;;13.40;77.00;100388.47;4992770;28;45364;-88
2021/12/29 09:12:52;;;;;;;;;5.00;3.67;;;;;13.59;77.19;100428.34;4993205;28;45403;-88
2021/12/29 09:15:20;;;;;;;;;2.00;2.00;;;;;13.58;77.09;100418.63;4991054;28;47076;-88
2021/12/29 09:17:46;;;;;;;;;2.00;2.00;;;;;14.13;77.29;100487.50;4990995;28;45730;-88
2021/12/29 09:20:16;;;;;;;;;1.00;1.00;;;;;14.38;77.79;100523.50;4991373;28;45500;-88
2021/12/29 09:22:42;;;;;;;;;36.67;32.00;;;;;13.88;77.55;100431.94;4994306;28;45610;-89
2021/12/29 09:25:08;;;;;;;;;17.00;13.67;;;;;13.99;77.80;100446.47;4995329;28;46096;-88
2021/12/29 09:27:34;;;;;;;;;18.00;18.00;;;;;13.68;77.55;100402.84;4995345;28;45629;-88
2021/12/29 09:29:59;;;;;;;;;3.00;3.00;;;;;13.90;77.60;100445.22;4995944;28;45476;-88
2021/12/29 09:32:30;;;;;;;;;17.00;15.33;;;;;14.51;77.75;100536.97;4994254;28;45709;-88
2021/12/29 09:34:59;;;;;;;;;22.00;20.67;;;;;14.11;77.63;100465.28;4995564;28;45369;-88
2021/12/29 09:37:25;;;;;;;;;10.00;8.00;;;;;13.79;78.02;100386.97;4993887;28;45490;-89
2021/12/29 09:39:50;;;;;;;;;10.67;9.67;;;;;13.87;77.20;100398.03;4994269;28;45492;-88
2021/12/29 09:42:16;;;;;;;;;13.33;13.33;;;;;14.29;78.17;100465.97;4995944;28;45584;-88
2021/12/29 09:44:41;;;;;;;;;16.67;15.33;;;;;14.26;77.34;100450.06;4995425;28;45609;-88
2021/12/29 09:47:08;;;;;;;;;4.00;3.00;;;;;13.86;77.55;100349.91;4993601;28;45476;-88
2021/12/29 09:49:34;;;;;;;;;17.00;14.67;;;;;14.69;78.01;100481.34;4994243;28;45395;-88
2021/12/29 09:52:00;;;;;;;;;12.33;10.00;;;;;14.63;78.03;100482.56;4995941;28;45230;-88
2021/12/29 09:54:25;;;;;;;;;13.33;13.33;;;;;14.99;78.02;100535.69;4993856;28;48361;-88
2021/12/29 09:56:51;;;;;;;;;10.67;10.67;;;;;14.20;77.67;100396.84;4995100;28;45223;-88
2021/12/29 09:59:18;;;;;;;;;11.33;9.00;;;;;13.88;78.46;100343.53;4995481;28;45242;-88
2021/12/29 10:01:44;;;;;;;;;10.33;10.33;;;;;14.22;78.39;100386.03;4995247;28;45418;-89
2021/12/29 10:04:09;;;;;;;;;3.67;3.67;;;;;14.98;78.69;100499.09;4995399;28;45545;-89
2021/12/29 10:06:35;;;;;;;;;12.00;10.33;;;;;14.91;78.55;100478.97;4993793;28;45465;-88
2021/12/29 10:09:10;;;;;;;;;5.00;5.00;;;;;14.88;78.94;100470.25;4995311;28;45438;-88
2021/12/29 10:11:36;;;;;;;;;2.00;2.00;;;;;15.25;79.26;100530.41;4995731;28;45371;-89
2021/12/29 10:14:08;;;;;;;;;1.00;1.00;;;;;14.68;79.08;100420.59;4993775;28;48372;-89
2021/12/29 10:16:33;;;;;;;;;5.00;5.00;;;;;15.35;79.57;100519.91;4993647;28;45627;-89
2021/12/29 10:19:08;;;;;;;;;6.33;6.33;;;;;15.02;79.09;100488.97;4993879;28;45493;-88
2021/12/29 10:21:36;;;;;;;;;2.00;2.00;;;;;15.37;79.66;100529.59;4994025;28;45452;-89
2021/12/29 10:24:03;;;;;;;;;3.00;2.00;;;;;15.22;79.76;100516.31;4995177;28;45448;-88
2021/12/29 10:26:31;;;;;;;;;4.67;3.00;;;;;15.11;80.03;100511.69;4993642;28;45313;-89
2021/12/29 10:29:12;;;;;;;;;0.00;0.00;;;;;15.43;79.84;100560.56;4993809;28;45457;-89
2021/12/29 10:31:47;;;;;;;;;2.00;0.00;;;;;15.18;79.42;100499.56;4993475;28;45569;-89
2021/12/29 10:34:18;;;;;;;;;1.33;1.00;;;;;14.64;79.58;100411.03;4993251;28;48210;-89
2021/12/29 10:36:52;;;;;;;;;4.00;4.00;;;;;15.38;80.00;100538.50;4994532;28;45419;-88
2021/12/29 10:39:34;;;;;;;;;1.67;1.67;;;;;14.84;80.02;100434.69;4993613;28;45353;-88
2021/12/29 10:42:04;;;;;;;;;1.00;1.00;;;;;15.58;80.24;100548.75;4995128;28;45290;-86
2021/12/29 10:44:38;;;;;;;;;1.00;1.00;;;;;14.98;80.50;100471.34;4994928;28;45411;-89
2021/12/29 10:47:19;;;;;;;;;1.00;1.00;;;;;15.19;80.50;100482.47;4993357;28;45402;-88
2021/12/29 10:49:57;;;;;;;;;1.00;1.00;;;;;15.17;80.78;100481.72;4994884;28;45399;-89
2021/12/29 10:52:46;;;;;;;;;0.33;0.33;;;;;15.39;80.82;100513.38;4995195;28;45555;-87
2021/12/29 10:55:35;;;;;;;;;3.00;2.00;;;;;14.92;80.99;100432.38;4993175;28;48085;-88
2021/12/29 10:58:10;;;;;;;;;2.00;2.00;;;;;15.54;80.72;100536.50;4994516;28;45457;-88
2021/12/29 11:00:38;;;;;;;;;0.00;0.00;;;;;15.38;80.78;100511.63;4994735;28;45432;-88
2021/12/29 11:03:15;;;;;;;;;0.33;0.33;;;;;15.75;81.65;100557.53;4993647;28;45625;-89
2021/12/29 11:05:48;;;;;;;;;1.00;1.00;;;;;14.99;81.57;100448.94;4992925;28;48501;-89
2021/12/29 11:08:16;;;;;;;;;0.00;0.00;;;;;14.92;81.76;100413.59;4993104;28;45394;-89
2021/12/29 11:10:43;;;;;;;;;1.33;1.00;;;;;15.35;81.57;100485.84;4994695;28;45509;-88
2021/12/29 11:13:09;;;;;;;;;0.00;0.00;;;;;14.93;81.96;100425.19;4993683;28;45520;-88
2021/12/29 11:15:41;;;;;;;;;0.00;0.00;;;;;15.57;81.93;100522.03;4993966;28;46222;-89
2021/12/29 11:18:09;;;;;;;;;1.00;1.00;;;;;15.49;81.62;100484.91;4994221;28;45492;-89
2021/12/29 11:20:35;;;;;;;;;1.00;1.00;;;;;15.16;82.18;100432.53;4994727;28;45327;-86
2021/12/29 11:23:13;;;;;;;;;0.00;0.00;;;;;15.10;81.45;100435.66;4993394;28;45184;-88
2021/12/29 11:25:41;;;;;;;;;0.00;0.00;;;;;15.44;82.13;100468.25;4994369;28;46080;-88
2021/12/29 11:28:19;;;;;;;;;0.00;0.00;;;;;15.20;81.96;100434.06;4992560;28;46281;-87
2021/12/29 11:30:44;;;;;;;;;1.00;1.00;;;;;15.38;82.18;100460.59;4994450;28;45377;-87